Time;durP1;ratioP1;P1;durP2;ratioP2;P2;SDS_P1;SDS_P2;PMS_P1;PMS_P2;Temp;Humidity;BMP_temperature;BMP_pressure;BME280_temperature;BME280_humidity;BME280_pressure;Samples;Min_cycle;Max_cycle;Signal;HPM_P1;HPM_P2
2022/03/02 00:01:44;;;;;;;;;52.33;41.33;;;;;35.45;11.85;101741.97;5093901;27;45436;-81
2022/03/02 00:04:10;;;;;;;;;53.33;40.33;;;;;35.87;11.46;101816.34;5076643;28;45576;-81
2022/03/02 00:06:35;;;;;;;;;55.00;39.33;;;;;35.85;11.67;101813.69;5092679;27;45418;-81
2022/03/02 00:09:02;;;;;;;;;53.33;41.00;;;;;35.87;11.91;101811.69;5076918;28;45627;-81
2022/03/02 00:11:27;;;;;;;;;39.33;34.00;;;;;35.37;11.81;101750.81;5058439;28;46184;-80
2022/03/02 00:13:53;;;;;;;;;50.00;38.00;;;;;35.36;11.83;101754.56;5076740;28;45422;-81
2022/03/02 00:16:19;;;;;;;;;50.00;40.33;;;;;35.43;11.96;101790.88;5076612;28;45426;-81
2022/03/02 00:18:45;;;;;;;;;51.67;42.67;;;;;35.42;12.11;101791.00;5092674;27;45516;-81
2022/03/02 00:21:10;;;;;;;;;51.33;40.33;;;;;35.13;12.14;101760.75;5076053;28;45559;-81
2022/03/02 00:23:36;;;;;;;;;51.00;40.33;;;;;35.11;12.07;101774.66;5076726;28;45404;-81
2022/03/02 00:26:02;;;;;;;;;40.00;35.67;;;;;35.25;12.01;101793.00;5092801;27;45465;-81
2022/03/02 00:28:28;;;;;;;;;49.67;40.00;;;;;35.06;11.86;101754.78;5096833;27;45562;-81
2022/03/02 00:30:53;;;;;;;;;42.00;37.67;;;;;35.18;12.14;101789.78;5096870;27;46325;-81
2022/03/02 00:33:19;;;;;;;;;43.33;38.33;;;;;34.99;12.31;101754.34;5078423;27;45689;-80
2022/03/02 00:35:44;;;;;;;;;38.67;32.33;;;;;34.74;11.93;101708.25;5096729;27;45415;-81
2022/03/02 00:38:10;;;;;;;;;42.00;36.67;;;;;34.97;12.29;101749.91;5096777;27;45315;-81
2022/03/02 00:40:40;;;;;;;;;41.00;36.33;;;;;34.85;12.18;101743.34;5096722;27;45491;-80
2022/03/02 00:43:07;;;;;;;;;46.33;39.33;;;;;34.97;12.19;101778.38;5078257;27;45534;-81
2022/03/02 00:45:33;;;;;;;;;43.33;37.67;;;;;34.62;12.12;101720.09;5096780;27;45401;-81
2022/03/02 00:47:59;;;;;;;;;43.33;38.00;;;;;34.97;12.36;101766.47;5096933;27;45361;-81
2022/03/02 00:50:25;;;;;;;;;43.33;37.00;;;;;34.86;12.06;101764.44;5096151;27;45403;-80
2022/03/02 00:52:50;;;;;;;;;46.33;37.67;;;;;34.83;12.21;101760.00;5096788;27;46336;-81
2022/03/02 00:55:16;;;;;;;;;49.67;40.00;;;;;34.89;12.47;101750.44;5096776;27;45596;-80
2022/03/02 00:57:42;;;;;;;;;46.33;38.00;;;;;34.90;12.32;101754.97;5097084;27;45364;-81
2022/03/02 01:00:09;;;;;;;;;38.00;35.67;;;;;34.76;12.35;101722.78;5096257;27;46179;-81
2022/03/02 01:02:34;;;;;;;;;42.33;37.00;;;;;34.97;11.96;101750.78;5077360;27;45467;-80
2022/03/02 01:05:00;;;;;;;;;31.33;26.33;;;;;35.08;11.86;101762.94;5077850;27;45362;-81
2022/03/02 01:07:25;;;;;;;;;47.33;39.67;;;;;35.11;11.97;101746.22;5077871;27;45635;-80
2022/03/02 01:09:51;;;;;;;;;43.00;38.00;;;;;35.20;12.12;101746.44;5077920;27;46107;-81
2022/03/02 01:12:16;;;;;;;;;43.33;36.67;;;;;35.22;11.96;101732.56;5096310;27;45402;-80
2022/03/02 01:14:42;;;;;;;;;51.67;40.33;;;;;35.16;11.72;101730.19;5096158;27;45487;-81
2022/03/02 01:17:07;;;;;;;;;46.00;34.67;;;;;34.93;11.98;101699.59;5078009;27;45510;-80
2022/03/02 01:19:33;;;;;;;;;50.00;39.00;;;;;34.96;11.99;101691.13;5095582;27;45511;-80
2022/03/02 01:21:58;;;;;;;;;43.00;35.00;;;;;35.02;12.06;101698.97;5077820;27;45762;-80
2022/03/02 01:24:24;;;;;;;;;45.33;37.00;;;;;35.18;12.22;101686.88;5077836;27;45485;-81
2022/03/02 01:26:49;;;;;;;;;41.00;36.67;;;;;35.01;11.81;101682.53;5096285;27;45943;-81
2022/03/02 01:29:14;;;;;;;;;44.33;37.00;;;;;35.16;11.72;101700.75;5077607;27;47399;-81
2022/03/02 01:31:40;;;;;;;;;48.67;36.33;;;;;35.18;12.08;101748.41;5096176;27;45476;-80
2022/03/02 01:34:05;;;;;;;;;52.00;38.00;;;;;34.81;12.01;101698.59;5077580;27;45439;-81
2022/03/02 01:36:31;;;;;;;;;44.67;38.67;;;;;34.19;12.10;101613.63;5077777;27;45627;-81
2022/03/02 01:38:56;;;;;;;;;41.00;36.67;;;;;34.48;12.26;101666.78;5095918;27;45460;-80
2022/03/02 01:41:24;;;;;;;;;44.67;36.67;;;;;34.79;12.12;101719.81;5095695;27;45469;-80
2022/03/02 01:43:51;;;;;;;;;44.00;38.00;;;;;34.79;12.17;101714.31;5077790;27;45307;-80
2022/03/02 01:46:18;;;;;;;;;46.33;38.67;;;;;34.87;12.50;101741.41;5095676;27;45820;-80
2022/03/02 01:48:43;;;;;;;;;50.33;38.67;;;;;34.75;12.28;101698.97;5077069;27;48410;-80
2022/03/02 01:51:10;;;;;;;;;42.00;38.00;;;;;34.74;12.16;101708.25;5077338;27;45429;-80
2022/03/02 01:53:35;;;;;;;;;49.67;40.00;;;;;34.62;12.61;101690.66;5077157;27;45689;-81
2022/03/02 01:56:01;;;;;;;;;44.00;39.00;;;;;34.81;12.29;101692.19;5095686;27;45355;-81
2022/03/02 01:58:28;;;;;;;;;43.00;38.00;;;;;34.97;12.29;101730.63;5076752;27;46351;-80
2022/03/02 02:00:54;;;;;;;;;38.33;36.00;;;;;34.51;12.33;101660.19;5095830;27;45219;-81
2022/03/02 02:03:20;;;;;;;;;44.00;36.33;;;;;34.65;12.19;101693.19;5076686;27;45459;-80
2022/03/02 02:05:45;;;;;;;;;47.33;39.00;;;;;34.46;12.22;101662.38;5095405;27;45521;-80
2022/03/02 02:08:10;;;;;;;;;46.67;36.00;;;;;34.70;12.36;101698.41;5095295;27;46271;-79
2022/03/02 02:10:36;;;;;;;;;43.00;36.67;;;;;34.96;12.08;101712.28;5095139;27;45487;-79
2022/03/02 02:13:02;;;;;;;;;45.00;37.33;;;;;34.54;12.25;101643.44;5095816;27;45378;-79
2022/03/02 02:15:28;;;;;;;;;43.67;39.00;;;;;34.96;12.09;101704.03;5097396;27;45319;-79
2022/03/02 02:17:53;;;;;;;;;49.00;39.33;;;;;34.68;12.43;101659.03;5083448;27;45454;-79
2022/03/02 02:20:19;;;;;;;;;46.00;37.33;;;;;34.83;12.17;101685.56;5078418;28;45530;-79
2022/03/02 02:22:47;;;;;;;;;44.00;37.33;;;;;34.75;11.85;101673.28;5078798;28;45412;-79
2022/03/02 02:25:14;;;;;;;;;50.67;40.33;;;;;34.61;12.28;101647.53;5078512;28;45436;-79
2022/03/02 02:27:40;;;;;;;;;46.67;38.00;;;;;34.71;12.24;101650.53;5078360;28;46338;-79
2022/03/02 02:30:07;;;;;;;;;40.67;36.33;;;;;34.80;11.96;101663.75;5078373;28;45481;-79
2022/03/02 02:32:36;;;;;;;;;44.67;36.33;;;;;35.04;12.20;101687.84;5077976;28;45433;-79
2022/03/02 02:35:03;;;;;;;;;44.33;35.67;;;;;34.90;12.48;101671.38;5060230;28;45560;-79
2022/03/02 02:37:28;;;;;;;;;52.33;40.67;;;;;34.75;12.29;101634.69;5077849;28;46474;-79
2022/03/02 02:39:59;;;;;;;;;44.33;37.33;;;;;34.55;12.18;101616.78;5078158;28;45386;-79
2022/03/02 02:42:25;;;;;;;;;43.00;37.33;;;;;34.76;12.12;101640.09;5060203;28;45608;-79
2022/03/02 02:44:51;;;;;;;;;49.33;38.33;;;;;34.87;12.20;101658.69;5059806;28;45351;-77
2022/03/02 02:47:16;;;;;;;;;47.67;39.67;;;;;34.71;12.18;101647.78;5077698;28;46623;-79
2022/03/02 02:49:42;;;;;;;;;47.00;39.67;;;;;35.02;12.05;101673.25;5078066;28;45232;-79
2022/03/02 02:52:07;;;;;;;;;40.67;36.00;;;;;34.94;12.21;101651.75;5078459;28;45326;-79
2022/03/02 02:54:32;;;;;;;;;44.00;38.00;;;;;34.80;12.13;101649.94;5078028;28;45225;-80
2022/03/02 02:56:58;;;;;;;;;46.33;38.33;;;;;34.81;12.12;101642.56;5078162;28;45256;-79
2022/03/02 02:59:24;;;;;;;;;47.33;39.67;;;;;34.83;12.00;101633.19;5088070;27;45414;-80
2022/03/02 03:01:50;;;;;;;;;47.00;38.33;;;;;34.75;12.17;101616.28;5079689;27;45252;-79
2022/03/02 03:04:15;;;;;;;;;44.00;37.33;;;;;34.90;12.23;101646.56;5080262;27;45265;-79
2022/03/02 03:06:41;;;;;;;;;45.67;39.33;;;;;34.89;12.07;101631.00;5079738;27;47544;-79
2022/03/02 03:09:06;;;;;;;;;44.00;37.00;;;;;34.69;12.44;101600.19;5098313;27;45404;-79
2022/03/02 03:11:32;;;;;;;;;36.00;29.33;;;;;34.69;12.34;101605.69;5079781;27;45596;-79
2022/03/02 03:13:58;;;;;;;;;49.33;40.33;;;;;34.50;12.29;101582.19;5098477;27;45391;-79
2022/03/02 03:16:23;;;;;;;;;45.33;38.00;;;;;34.38;12.16;101565.63;5097444;27;45530;-79
2022/03/02 03:18:49;;;;;;;;;47.33;40.00;;;;;34.50;12.35;101586.78;5098160;27;45428;-79
2022/03/02 03:21:14;;;;;;;;;50.67;39.33;;;;;34.83;12.50;101635.06;5080015;27;45353;-79
2022/03/02 03:23:40;;;;;;;;;48.67;39.33;;;;;34.90;12.18;101630.03;5097939;27;45355;-79
2022/03/02 03:26:05;;;;;;;;;46.67;40.33;;;;;34.64;12.00;101591.34;5097608;27;46293;-79
2022/03/02 03:28:30;;;;;;;;;51.33;41.00;;;;;34.77;12.33;101617.06;5097527;27;45386;-79
2022/03/02 03:30:57;;;;;;;;;47.00;38.33;;;;;34.72;12.37;101621.13;5097902;27;45544;-79
2022/03/02 03:33:22;;;;;;;;;45.33;37.33;;;;;34.83;12.15;101624.91;5097952;27;45570;-79
2022/03/02 03:35:49;;;;;;;;;47.00;40.33;;;;;34.62;12.21;101607.97;5097610;27;46203;-79
2022/03/02 03:38:14;;;;;;;;;39.67;36.00;;;;;34.70;12.23;101622.13;5098000;27;45511;-79
2022/03/02 03:40:39;;;;;;;;;50.33;40.67;;;;;34.56;12.09;101602.00;5097684;27;45348;-79
2022/03/02 03:43:05;;;;;;;;;47.33;39.33;;;;;34.60;12.49;101620.09;5098085;27;45433;-79
2022/03/02 03:45:30;;;;;;;;;45.33;39.00;;;;;34.59;12.13;101597.19;5078902;27;47898;-79
2022/03/02 03:47:56;;;;;;;;;43.00;37.33;;;;;34.56;12.34;101579.97;5097285;27;45486;-79
2022/03/02 03:50:22;;;;;;;;;43.67;38.00;;;;;34.50;12.08;101565.66;5097722;27;45485;-79
2022/03/02 03:52:48;;;;;;;;;50.67;41.67;;;;;34.56;12.20;101574.44;5079145;27;45497;-79
2022/03/02 03:55:14;;;;;;;;;52.67;42.00;;;;;34.77;12.26;101611.56;5083608;27;46484;-79
2022/03/02 03:57:40;;;;;;;;;49.00;38.67;;;;;34.89;11.99;101617.22;5058675;28;45539;-79
2022/03/02 04:00:08;;;;;;;;;50.67;40.67;;;;;34.82;12.45;101622.28;5058689;28;45444;-79
2022/03/02 04:02:34;;;;;;;;;45.67;38.00;;;;;34.68;12.38;101591.03;5077174;28;45378;-79
2022/03/02 04:04:59;;;;;;;;;44.67;36.67;;;;;34.61;12.40;101583.28;5076570;28;45559;-79
2022/03/02 04:07:25;;;;;;;;;53.67;45.00;;;;;34.62;12.42;101591.44;5076993;28;45251;-78
2022/03/02 04:09:50;;;;;;;;;51.67;40.67;;;;;34.37;12.43;101548.19;5058789;28;45288;-79
2022/03/02 04:12:17;;;;;;;;;42.67;37.67;;;;;34.58;12.15;101589.91;5058873;28;45364;-79
2022/03/02 04:14:43;;;;;;;;;49.00;40.67;;;;;34.51;12.26;101574.78;5076257;27;45408;-79
2022/03/02 04:17:08;;;;;;;;;44.67;36.33;;;;;34.55;11.97;101592.00;5076608;28;45487;-79
2022/03/02 04:19:34;;;;;;;;;42.00;36.67;;;;;34.53;12.27;101592.97;5076701;28;45454;-79
2022/03/02 04:21:59;;;;;;;;;42.33;37.00;;;;;34.29;12.37;101558.84;5076858;28;45471;-79
2022/03/02 04:24:25;;;;;;;;;52.00;39.00;;;;;34.48;12.38;101584.13;5076567;28;46150;-79
2022/03/02 04:26:50;;;;;;;;;48.33;39.33;;;;;34.29;12.32;101547.84;5076603;28;45457;-79
2022/03/02 04:29:15;;;;;;;;;50.00;38.00;;;;;34.29;12.51;101559.75;5076082;28;45419;-79
2022/03/02 04:31:41;;;;;;;;;46.33;40.00;;;;;34.48;12.35;101592.41;5076406;28;45403;-79
2022/03/02 04:34:06;;;;;;;;;51.33;39.67;;;;;34.25;12.33;101547.16;5076678;28;46179;-79
2022/03/02 04:36:31;;;;;;;;;41.67;37.00;;;;;34.57;12.35;101588.16;5076048;28;45496;-79
2022/03/02 04:38:58;;;;;;;;;37.33;33.33;;;;;34.65;12.10;101593.09;5076019;28;45293;-78
2022/03/02 04:41:23;;;;;;;;;52.33;42.00;;;;;34.59;12.63;101590.78;5076415;28;45455;-79
2022/03/02 04:43:48;;;;;;;;;40.33;35.00;;;;;34.16;12.44;101536.75;5075750;28;46111;-79
2022/03/02 04:46:14;;;;;;;;;39.33;36.67;;;;;34.17;12.72;101524.75;5076407;28;45232;-79
2022/03/02 04:48:39;;;;;;;;;43.00;37.67;;;;;34.45;12.35;101556.81;5076190;28;45285;-78
2022/03/02 04:51:05;;;;;;;;;49.00;40.00;;;;;34.67;12.39;101571.81;5076312;28;45500;-79
2022/03/02 04:53:30;;;;;;;;;47.33;39.33;;;;;34.52;12.21;101538.84;5057790;28;45903;-79
2022/03/02 04:55:55;;;;;;;;;46.00;37.33;;;;;34.74;12.12;101547.47;5096333;27;45336;-78
2022/03/02 04:58:21;;;;;;;;;42.67;37.00;;;;;34.73;12.17;101543.84;5096614;27;45308;-79
2022/03/02 05:00:46;;;;;;;;;44.33;38.00;;;;;34.70;12.45;101546.81;5096602;27;45569;-78
2022/03/02 05:03:12;;;;;;;;;48.67;41.33;;;;;34.70;12.30;101549.59;5096523;27;46334;-79
2022/03/02 05:05:39;;;;;;;;;49.00;37.33;;;;;34.89;12.34;101573.13;5096293;27;45494;-78
2022/03/02 05:08:06;;;;;;;;;42.33;37.00;;;;;34.62;12.41;101546.47;5078278;27;45508;-78
2022/03/02 05:10:32;;;;;;;;;45.67;36.00;;;;;34.41;12.16;101500.16;5077672;27;45449;-78
2022/03/02 05:12:57;;;;;;;;;47.67;39.67;;;;;34.67;12.03;101569.97;5096273;27;46504;-78
2022/03/02 05:15:23;;;;;;;;;48.67;37.33;;;;;34.37;12.23;101517.88;5077891;27;45350;-78
2022/03/02 05:17:49;;;;;;;;;45.67;39.00;;;;;34.39;12.17;101534.31;5077753;27;45511;-78
2022/03/02 05:20:16;;;;;;;;;39.67;32.33;;;;;34.35;12.39;101529.00;5096436;27;45342;-78
2022/03/02 05:22:42;;;;;;;;;48.67;40.33;;;;;34.25;12.56;101541.63;5096150;27;45640;-78
2022/03/02 05:25:09;;;;;;;;;49.00;39.00;;;;;34.14;12.45;101528.59;5077482;27;45943;-78
2022/03/02 05:27:35;;;;;;;;;47.67;39.33;;;;;34.34;12.55;101570.44;5096164;27;45426;-78
2022/03/02 05:30:01;;;;;;;;;46.00;39.67;;;;;34.10;12.62;101545.44;5096078;27;45531;-78
2022/03/02 05:32:27;;;;;;;;;48.67;40.00;;;;;34.15;12.97;101552.41;5088474;27;45397;-78
2022/03/02 05:34:53;;;;;;;;;43.33;37.00;;;;;34.09;12.92;101528.00;5075197;28;45382;-78
2022/03/02 05:37:18;;;;;;;;;45.00;37.00;;;;;34.34;12.38;101548.41;5075527;28;45255;-78
2022/03/02 05:39:44;;;;;;;;;47.00;37.00;;;;;34.26;12.76;101542.50;5074944;28;45301;-78
2022/03/02 05:42:09;;;;;;;;;51.00;42.33;;;;;34.05;12.50;101532.00;5056899;28;47946;-78
2022/03/02 05:44:35;;;;;;;;;48.33;39.00;;;;;34.12;12.29;101547.09;5075398;28;45394;-78
2022/03/02 05:47:03;;;;;;;;;49.00;41.33;;;;;34.02;12.58;101532.19;5057199;28;45347;-80
2022/03/02 05:49:28;;;;;;;;;45.00;37.33;;;;;34.22;12.13;101550.13;5059722;28;45490;-78
2022/03/02 05:51:53;;;;;;;;;46.33;38.00;;;;;34.25;12.65;101538.88;5078553;28;45836;-77
2022/03/02 05:54:19;;;;;;;;;48.33;39.00;;;;;34.14;12.17;101528.59;5060483;28;45919;-78
2022/03/02 05:56:44;;;;;;;;;46.33;39.67;;;;;34.15;12.63;101519.34;5078698;28;45390;-78
2022/03/02 05:59:12;;;;;;;;;43.00;38.33;;;;;34.39;12.32;101554.50;5080329;28;45327;-77
2022/03/02 06:01:38;;;;;;;;;37.67;32.00;;;;;34.31;12.22;101534.84;5078912;28;45408;-78
2022/03/02 06:04:05;;;;;;;;;51.33;40.00;;;;;34.14;12.52;101520.34;5078119;28;45289;-78
2022/03/02 06:06:33;;;;;;;;;44.33;38.00;;;;;34.24;12.68;101547.25;5078472;28;45491;-78
2022/03/02 06:08:59;;;;;;;;;45.33;39.00;;;;;34.28;12.54;101554.31;5077823;28;45686;-78
2022/03/02 06:11:25;;;;;;;;;45.67;39.67;;;;;34.19;12.46;101551.22;5076864;27;48141;-78
2022/03/02 06:13:51;;;;;;;;;45.67;39.67;;;;;34.13;12.23;101532.31;5078329;28;45387;-78
2022/03/02 06:16:17;;;;;;;;;51.00;38.33;;;;;34.32;12.48;101548.50;5071398;28;45496;-79
2022/03/02 06:18:43;;;;;;;;;44.33;36.67;;;;;34.12;12.31;101505.81;5078258;28;45511;-79
2022/03/02 06:21:14;;;;;;;;;44.33;38.00;;;;;34.35;11.97;101555.69;5060081;28;47069;-78
2022/03/02 06:23:40;;;;;;;;;43.67;38.67;;;;;34.22;12.59;101541.84;5081306;27;45374;-78
2022/03/02 06:26:05;;;;;;;;;47.00;37.00;;;;;34.19;12.63;101542.03;5080121;27;45502;-79
2022/03/02 06:28:31;;;;;;;;;54.67;41.33;;;;;33.90;12.29;101506.38;5080288;27;45303;-81
2022/03/02 06:30:56;;;;;;;;;45.33;38.33;;;;;33.80;12.33;101486.84;5080010;27;47130;-80
2022/03/02 06:33:21;;;;;;;;;41.33;35.33;;;;;33.88;12.42;101496.47;5098465;27;45497;-80
2022/03/02 06:35:48;;;;;;;;;47.33;38.00;;;;;34.04;12.41;101535.72;5080243;27;45427;-80
2022/03/02 06:38:13;;;;;;;;;47.00;38.00;;;;;34.15;12.04;101554.25;5098087;27;45380;-80
2022/03/02 06:40:41;;;;;;;;;45.67;38.00;;;;;33.88;12.35;101510.22;5096695;27;45394;-80
2022/03/02 06:43:11;;;;;;;;;43.00;38.00;;;;;34.12;12.16;101551.72;5096598;27;45823;-80
2022/03/02 06:45:59;;;;;;;;;37.33;34.00;;;;;34.01;12.58;101535.94;5077475;27;45561;-80
2022/03/02 06:48:55;;;;;;;;;52.00;39.67;;;;;34.09;12.64;101547.28;5097035;27;45394;-79
2022/03/02 06:51:23;;;;;;;;;45.67;37.33;;;;;33.79;12.62;101523.63;5078805;27;46410;-80
2022/03/02 06:53:50;;;;;;;;;41.33;37.33;;;;;34.11;12.26;101559.09;5057613;28;45546;-80
2022/03/02 06:56:18;;;;;;;;;41.00;37.00;;;;;34.09;12.22;101560.19;5059224;28;45437;-80
2022/03/02 06:58:52;;;;;;;;;47.00;39.00;;;;;33.99;12.15;101532.41;5077681;27;46641;-80
2022/03/02 07:01:40;;;;;;;;;42.67;37.00;;;;;34.08;12.08;101556.56;5076394;28;46298;-80
2022/03/02 07:04:06;;;;;;;;;50.00;39.33;;;;;33.73;12.55;101524.00;5077472;27;45410;-80
2022/03/02 07:06:32;;;;;;;;;40.67;37.67;;;;;33.90;12.66;101544.91;5080675;27;45756;-80
2022/03/02 07:08:57;;;;;;;;;44.33;38.33;;;;;33.74;12.23;101503.78;5077850;28;45453;-80
2022/03/02 07:11:23;;;;;;;;;40.33;32.67;;;;;33.99;12.38;101526.88;5059588;28;47046;-79
2022/03/02 07:13:49;;;;;;;;;43.67;34.67;;;;;33.74;12.34;101500.09;5077639;28;45441;-79
2022/03/02 07:16:17;;;;;;;;;44.33;38.33;;;;;34.12;12.12;101546.22;5059319;28;45385;-76
2022/03/02 07:18:43;;;;;;;;;38.00;34.67;;;;;34.24;12.41;101561.03;5071884;28;45540;-78
2022/03/02 07:21:13;;;;;;;;;43.00;36.33;;;;;34.07;12.06;101523.63;5076817;27;45332;-78
2022/03/02 07:23:47;;;;;;;;;40.33;36.67;;;;;34.24;12.35;101558.28;5096791;27;45468;-77
2022/03/02 07:26:17;;;;;;;;;45.67;38.33;;;;;34.04;12.35;101530.22;5089582;27;45545;-77
2022/03/02 07:28:47;;;;;;;;;41.00;37.00;;;;;34.39;12.13;101564.59;5059177;28;45429;-77
2022/03/02 07:31:13;;;;;;;;;41.33;35.33;;;;;34.41;12.17;101558.00;5076755;28;45505;-77
2022/03/02 07:33:42;;;;;;;;;47.67;38.33;;;;;34.23;12.49;101540.84;5078119;27;45520;-77
2022/03/02 07:36:10;;;;;;;;;46.67;39.67;;;;;34.42;12.44;101565.28;5076808;28;45341;-77
2022/03/02 07:38:36;;;;;;;;;36.33;34.67;;;;;34.50;12.03;101568.41;5077154;28;45225;-77
2022/03/02 07:41:10;;;;;;;;;43.33;37.33;;;;;34.27;12.19;101547.03;5058439;28;46115;-77
2022/03/02 07:43:38;;;;;;;;;45.33;38.33;;;;;34.35;12.43;101561.19;5058745;28;45591;-77
2022/03/02 07:46:10;;;;;;;;;42.33;37.33;;;;;34.60;12.25;101571.41;5076823;28;45655;-78
2022/03/02 07:48:38;;;;;;;;;38.00;33.33;;;;;34.59;11.97;101550.34;5058412;28;45288;-77
2022/03/02 07:51:06;;;;;;;;;39.00;35.00;;;;;34.58;12.07;101544.94;5075912;28;46311;-77
2022/03/02 07:53:37;;;;;;;;;40.00;34.67;;;;;34.63;12.09;101534.47;5075363;28;46342;-77
2022/03/02 07:56:04;;;;;;;;;41.67;37.67;;;;;34.86;12.15;101564.06;5075377;28;45515;-77
2022/03/02 07:58:30;;;;;;;;;33.67;33.67;;;;;34.86;11.94;101560.41;5076568;28;45375;-77
2022/03/02 08:00:58;;;;;;;;;41.33;37.00;;;;;34.86;11.80;101539.25;5076254;28;46542;-77
2022/03/02 08:03:27;;;;;;;;;53.00;42.00;;;;;35.05;12.18;101551.72;5075279;28;45708;-76
2022/03/02 08:05:57;;;;;;;;;42.67;37.00;;;;;35.01;11.92;101542.78;5075093;28;45578;-77
2022/03/02 08:08:24;;;;;;;;;48.67;41.33;;;;;35.02;11.99;101547.31;5076598;28;45428;-77
2022/03/02 08:10:51;;;;;;;;;44.00;34.00;;;;;34.72;11.81;101475.06;5075162;28;48198;-78
2022/03/02 08:13:18;;;;;;;;;44.00;37.33;;;;;35.24;11.79;101555.91;5076372;28;45391;-77
2022/03/02 08:15:43;;;;;;;;;38.33;35.33;;;;;35.18;11.62;101543.44;5076529;28;45397;-77
2022/03/02 08:18:10;;;;;;;;;41.67;37.33;;;;;35.42;11.27;101556.47;5076019;27;45768;-78
2022/03/02 08:20:39;;;;;;;;;38.67;34.67;;;;;35.22;11.76;101558.78;5076358;27;46394;-79
2022/03/02 08:23:06;;;;;;;;;45.33;38.00;;;;;35.08;11.91;101518.41;5076132;28;45534;-79
2022/03/02 08:25:34;;;;;;;;;41.00;35.00;;;;;35.33;11.85;101549.72;5090760;27;45540;-80
2022/03/02 08:28:02;;;;;;;;;44.00;36.00;;;;;35.13;11.75;101504.28;5087381;27;45422;-79
2022/03/02 08:30:32;;;;;;;;;41.00;35.67;;;;;35.27;11.99;101551.00;5081035;27;47249;-79
2022/03/02 08:33:00;;;;;;;;;41.33;36.67;;;;;35.18;11.95;101529.66;5096967;27;45542;-79
2022/03/02 08:35:25;;;;;;;;;40.33;35.67;;;;;35.13;11.94;101529.97;5064611;27;45486;-78
2022/03/02 08:37:51;;;;;;;;;36.67;35.00;;;;;34.90;11.27;101486.66;5076891;28;45303;-83
2022/03/02 08:40:16;;;;;;;;;39.33;34.00;;;;;34.72;11.38;101473.16;5085206;27;45501;-85
2022/03/02 08:42:42;;;;;;;;;43.67;36.00;;;;;35.10;11.87;101563.28;5097119;27;45466;-86
2022/03/02 08:45:08;;;;;;;;;45.67;38.00;;;;;35.28;11.61;101554.69;5078168;27;45417;-85
2022/03/02 08:47:34;;;;;;;;;41.33;36.33;;;;;34.93;11.91;101502.97;5095850;27;45403;-85
2022/03/02 08:50:00;;;;;;;;;44.33;39.00;;;;;35.00;11.62;101510.69;5080595;27;48404;-84
2022/03/02 08:52:29;;;;;;;;;36.67;34.00;;;;;35.24;11.77;101540.22;5078015;27;45362;-84
2022/03/02 08:54:56;;;;;;;;;43.33;33.33;;;;;34.92;11.30;101473.63;5095668;27;45491;-85
2022/03/02 08:57:23;;;;;;;;;42.33;34.67;;;;;35.21;11.71;101535.81;5078051;27;45572;-84
2022/03/02 08:59:54;;;;;;;;;38.33;35.67;;;;;35.30;11.63;101549.91;5094485;27;46699;-83
2022/03/02 09:02:24;;;;;;;;;35.67;30.00;;;;;35.30;11.17;101534.31;5092950;27;45770;-83
2022/03/02 09:04:50;;;;;;;;;39.33;32.67;;;;;34.66;11.29;101466.22;5075922;28;45262;-79
2022/03/02 09:07:20;;;;;;;;;40.33;35.00;;;;;35.14;11.64;101531.72;5073372;28;45479;-78
2022/03/02 09:09:46;;;;;;;;;37.67;34.00;;;;;35.49;11.43;101558.63;5080432;27;45519;-78
2022/03/02 09:12:13;;;;;;;;;40.67;35.67;;;;;35.63;11.19;101565.03;5078136;27;45512;-77
2022/03/02 09:14:39;;;;;;;;;38.67;36.00;;;;;35.69;11.45;101559.03;5092140;27;45236;-80
2022/03/02 09:17:05;;;;;;;;;35.00;32.00;;;;;35.36;11.01;101539.34;5089769;27;45340;-80
2022/03/02 09:19:32;;;;;;;;;41.67;34.33;;;;;35.54;11.05;101544.47;5096053;27;46444;-80
2022/03/02 09:21:58;;;;;;;;;33.67;31.00;;;;;35.67;11.39;101550.00;5078205;27;45703;-80
2022/03/02 09:24:26;;;;;;;;;39.67;33.00;;;;;35.72;11.03;101537.59;5095570;27;45518;-80
2022/03/02 09:26:53;;;;;;;;;38.67;31.33;;;;;35.69;11.09;101524.00;5096130;27;45516;-80
2022/03/02 09:29:19;;;;;;;;;35.67;31.67;;;;;35.46;10.80;101508.28;5077374;27;46568;-80
2022/03/02 09:31:49;;;;;;;;;34.00;33.00;;;;;35.34;10.64;101504.59;5095814;27;45365;-80
2022/03/02 09:34:19;;;;;;;;;34.67;30.33;;;;;34.99;11.08;101541.13;5096128;27;45441;-79
2022/03/02 09:36:47;;;;;;;;;44.67;35.33;;;;;34.74;11.58;101501.53;5077681;27;45492;-80
2022/03/02 09:39:12;;;;;;;;;37.00;34.00;;;;;34.82;10.92;101504.59;5095538;27;45497;-80
2022/03/02 09:41:58;;;;;;;;;38.00;31.33;;;;;34.62;11.54;101538.22;5077693;27;45438;-80
2022/03/02 09:44:32;;;;;;;;;41.67;35.67;;;;;34.76;11.17;101535.34;5095888;27;46298;-80
2022/03/02 09:47:00;;;;;;;;;35.67;30.67;;;;;34.93;10.90;101489.19;5095546;27;45323;-80
2022/03/02 09:49:30;;;;;;;;;36.33;32.33;;;;;34.86;11.07;101474.97;5095332;27;46208;-80
2022/03/02 09:52:07;;;;;;;;;43.67;33.00;;;;;34.98;11.13;101470.41;5077301;27;45350;-80
2022/03/02 09:54:36;;;;;;;;;39.67;33.67;;;;;35.51;10.87;101526.31;5095673;27;45429;-80
2022/03/02 09:57:03;;;;;;;;;35.00;31.00;;;;;35.43;10.88;101472.66;5095671;27;45500;-80
2022/03/02 09:59:36;;;;;;;;;38.67;33.00;;;;;35.46;10.90;101456.78;5089165;27;45461;-81
2022/03/02 10:02:07;;;;;;;;;37.67;34.00;;;;;35.79;10.95;101498.47;5074816;28;45525;-80
2022/03/02 10:04:35;;;;;;;;;32.33;32.33;;;;;35.94;11.06;101529.59;5085337;27;45438;-82
2022/03/02 10:09:52;;;;;;;;;43.00;33.67;;;;;35.53;10.82;101499.47;5094230;27;45505;-80
2022/03/02 10:12:21;;;;;;;;;41.00;33.00;;;;;35.68;10.59;101524.13;5078650;27;45535;-78
2022/03/02 10:14:48;;;;;;;;;36.67;31.00;;;;;35.33;11.07;101489.94;5074940;28;45424;-77
2022/03/02 10:17:20;;;;;;;;;35.33;28.00;;;;;35.42;11.00;101517.81;5094005;27;45514;-80
2022/03/02 10:19:52;;;;;;;;;41.33;33.00;;;;;34.99;10.80;101477.69;5094043;27;45918;-79
2022/03/02 10:22:47;;;;;;;;;33.33;30.67;;;;;35.79;10.76;101515.91;5082019;27;45543;-76
2022/03/02 10:25:15;;;;;;;;;36.00;33.00;;;;;35.51;10.84;101509.75;5075277;27;45446;-77
2022/03/02 10:27:58;;;;;;;;;42.00;34.33;;;;;35.75;10.67;101513.50;5078040;27;45508;-81
2022/03/02 10:30:30;;;;;;;;;34.00;32.33;;;;;35.61;10.68;101509.91;5093840;27;45607;-79
2022/03/02 10:33:06;;;;;;;;;36.00;30.00;;;;;35.81;10.66;101458.75;5076063;27;45383;-79
2022/03/02 10:35:38;;;;;;;;;32.67;28.33;;;;;36.26;10.41;101517.91;5073384;27;45511;-78
2022/03/02 10:38:06;;;;;;;;;33.33;29.67;;;;;36.42;10.34;101498.31;5097904;27;45461;-79
2022/03/02 10:40:32;;;;;;;;;46.00;38.67;;;;;35.38;10.42;101439.91;5097126;27;46451;-76
2022/03/02 10:43:05;;;;;;;;;47.00;33.67;;;;;35.54;10.86;101497.56;5087374;27;45486;-76
2022/03/02 10:45:39;;;;;;;;;36.67;33.00;;;;;35.82;10.86;101488.09;5095975;27;45337;-77
2022/03/02 10:48:38;;;;;;;;;43.00;34.67;;;;;35.88;10.92;101472.97;5095781;27;45620;-78
2022/03/02 10:51:05;;;;;;;;;36.67;33.00;;;;;36.23;10.22;101483.13;5098327;27;45839;-77
2022/03/02 10:53:36;;;;;;;;;32.33;30.67;;;;;36.70;10.72;101488.69;5065675;28;45407;-78
2022/03/02 10:56:05;;;;;;;;;32.00;31.00;;;;;36.96;10.05;101489.34;5078815;27;45473;-76
2022/03/02 10:58:31;;;;;;;;;41.67;35.33;;;;;36.99;9.91;101480.81;5111331;27;45417;-79
2022/03/02 11:00:59;;;;;;;;;33.67;32.00;;;;;36.84;10.02;101430.41;5082061;27;45503;-82
2022/03/02 11:03:28;;;;;;;;;44.00;35.00;;;;;37.22;9.89;101442.94;5078699;27;45746;-78
2022/03/02 11:05:59;;;;;;;;;35.67;32.33;;;;;36.48;10.20;101413.00;5074880;27;46118;-79
2022/03/02 11:08:25;;;;;;;;;50.00;39.00;;;;;36.91;10.32;101475.91;5071248;27;46000;-79
2022/03/02 11:10:50;;;;;;;;;36.00;33.00;;;;;36.81;10.54;101444.47;5061192;27;47137;-82
2022/03/02 11:13:16;;;;;;;;;39.00;34.00;;;;;37.11;9.75;101464.22;5069715;27;46407;-81